Latest Weather Observations for Darwin Harbour

IDD60901

Issued at 9:41 pm CST Sunday 24 October 2021 (issued every 10 minutes, with the page automatically refreshed every 10 minutes)

About weather observations | Map of Darwin area stations | Latest observations for Darwin area | Other Formats
Station Details ID: 014072 Name: DARWIN NTC AWS Lat: -12.47 Lon: 130.85 Height: 0.0 m
Data from the previous 72 hours. | See also: Recent months for locations in Northern Territory

* Apparent Temperature, Dew Point, Relative Humidity, Delta-T and Rain since 9am use data from Darwin Airport, as humidity and rainfall observations are not available for Darwin Harbour.

Date/Time
CST
Temp
°C
App
Temp
°C
Dew
Point
°C
Rel
Hum
%
Delta-T
°C
Wind Press
QNH
hPa
Press
MSL
hPa
Rain since
9am
mm
Dir  Spd
km/h
Gust
km/h
Spd
kts
Gust
kts
24/09:30pm 29.1 32.1 24.7 77 3.1 WNW 17 26 9 14 1010.3 1010.2 0.2
24/09:00pm 29.7 32.7 24.0 71 4.0 W 15 20 8 11 1010.1 1010.0 0.2
24/08:30pm 29.9 32.5 23.9 70 4.2 W 17 22 9 12 1009.8 1009.7 0.2
24/08:00pm 30.2 31.7 23.0 65 4.9 WNW 20 28 11 15 1009.3 1009.2 0.2
24/07:30pm 30.3 32.0 23.4 66 4.8 WNW 20 32 11 17 1009.1 1009.0 0.2
24/07:00pm 30.8 33.1 22.8 62 5.5 WNW 15 32 8 17 1009.2 1009.1 0.2
24/06:30pm 31.6 34.4 21.5 55 6.8 WNW 9 17 5 9 1008.9 1008.8 0.2
24/06:00pm 32.3 35.6 21.5 53 7.3 NW 6 19 3 10 1008.4 1008.3 0.2
24/05:30pm 31.7 32.4 20.5 51 7.5 WNW 17 24 9 13 1008.2 1008.1 0.2
24/05:00pm 31.3 30.9 19.3 49 7.8 WNW 20 26 11 14 1008.1 1008.0 0.2
24/04:30pm 31.3 31.6 19.7 50 7.6 WNW 17 24 9 13 1008.1 1008.0 0.2
24/04:00pm 32.8 34.1 20.1 47 8.4 WNW 13 22 7 12 1008.1 1008.0 0.2
24/03:30pm 31.8 32.0 20.2 50 7.7 WNW 19 26 10 14 1008.5 1008.4 0.2
24/03:00pm 32.1 32.4 19.5 47 8.3 WNW 17 26 9 14 1008.7 1008.6 0.2
24/02:30pm 31.8 32.6 20.6 51 7.5 WNW 17 24 9 13 1009.0 1008.9 0.2
24/02:00pm 31.8 33.6 21.8 55 6.8 WNW 15 22 8 12 1009.6 1009.5 0.2
24/01:30pm 31.4 32.7 20.8 53 7.1 WNW 15 24 8 13 1009.9 1009.8 0.2
24/01:00pm 30.4 31.7 20.9 56 6.3 WNW 15 24 8 13 1010.3 1010.2 0.2
24/12:30pm 30.2 31.3 21.3 59 6.0 W 17 24 9 13 1010.9 1010.8 0.2
24/12:00pm 30.4 32.0 21.4 58 6.0 W 15 22 8 12 1011.2 1011.1 0.2
24/11:30am 30.7 32.9 21.8 59 6.0 WNW 13 20 7 11 1011.6 1011.5 0.2
24/11:00am 30.3 33.1 21.6 59 5.9 WSW 9 13 5 7 1011.7 1011.6 0.2
24/10:30am 29.8 33.5 22.2 63 5.1 W 6 9 3 5 1011.7 1011.6 0.2
24/10:00am 29.5 32.4 21.8 63 5.2 SE 9 11 5 6 1011.9 1011.8 0.2
24/09:30am 29.5 32.9 22.0 64 5.1 E 7 11 4 6 1011.7 1011.6 0.2
24/09:00am 28.8 33.1 24.2 76 3.2 E 9 13 5 7 1011.5 1011.4 0.0
24/08:30am 28.3 32.5 24.1 78 2.9 E 9 13 5 7 1011.4 1011.3 0.0
24/08:00am 27.6 32.5 23.7 79 2.7 ENE 4 11 2 6 1011.1 1011.0 0.0
24/07:30am 27.0 30.2 23.1 79 2.7 E 11 17 6 9 1010.8 1010.7 0.0
24/07:00am 26.8 28.8 23.0 79 2.6 E 17 20 9 11 1010.5 1010.4 0.0
24/06:30am 26.6 30.3 22.6 78 2.7 ENE 7 15 4 8 1009.9 1009.8 0.0
24/06:00am 27.0 30.6 22.4 76 3.1 ENE 7 13 4 7 1009.6 1009.5 0.0
24/05:30am 27.0 31.0 22.1 74 3.3 ENE 4 11 2 6 1009.6 1009.5 0.0
24/05:00am 27.1 30.3 21.7 72 3.6 NE 7 15 4 8 1009.4 1009.3 0.0
24/04:30am 27.0 29.2 21.2 70 3.9 NNE 11 19 6 10 1009.3 1009.2 0.0
24/04:00am 26.9 30.1 23.1 80 2.6 N 11 15 6 8 1009.7 1009.6 0.0
24/03:30am 26.1 30.1 22.7 81 2.3 NNE 6 11 3 6 1009.7 1009.6 0.0
24/03:00am 26.6 29.5 22.4 78 2.8 WSW 11 22 6 12 1010.2 1010.1 0.0
24/02:30am 24.6 25.3 21.5 83 2.1 SSE 20 43 11 23 1011.2 1011.1 0.0
24/02:19am 24.2 - - - - SE 44 61 24 33 1011.3 1011.2 -
24/02:00am 24.5 21.1 22.5 89 1.3 ESE 44 59 24 32 1011.5 1011.4 0.0
24/01:35am 25.8 - - - - E 46 72 25 39 1010.9 1010.8 -
24/01:34am 25.9 - - - - E 46 72 25 39 1010.6 1010.5 -
24/01:31am 26.5 - - - - E 33 65 18 35 1010.6 1010.5 -
24/01:30am 26.9 25.4 20.9 69 4.0 E 30 52 16 28 1010.9 1010.8 0.0
24/01:25am 28.4 - - - - ENE 11 48 6 26 1011.2 1011.1 -
24/01:00am 29.2 35.3 24.5 76 3.3 CALM 0 4 0 2 1011.3 1011.2 0.0
24/12:30am 29.2 34.2 24.5 76 3.3 W 6 7 3 4 1011.5 1011.4 0.0
24/12:00am 29.4 34.8 25.1 77 3.0 WNW 6 11 3 6 1011.8 1011.7 0.0
 
Date/Time
CST
Temp
°C
App
Temp
°C
Dew
Point
°C
Rel
Hum
%
Delta-T
°C
Wind Press
QNH
hPa
Press
MSL
hPa
Rain since
9am
mm
Dir  Spd
km/h
Gust
km/h
Spd
kts
Gust
kts
23/11:30pm 29.4 32.7 24.5 75 3.4 WNW 15 20 8 11 1011.7 1011.6 0.0
23/11:00pm 29.6 32.9 23.9 71 3.9 W 13 19 7 10 1012.0 1011.9 0.0
23/10:30pm 29.4 32.2 24.3 74 3.5 WNW 17 24 9 13 1011.6 1011.5 0.0
23/10:00pm 29.7 32.4 24.8 75 3.4 WNW 19 24 10 13 1011.1 1011.0 0.0
23/09:30pm 29.6 32.4 24.3 73 3.7 WNW 17 22 9 12 1010.9 1010.8 0.0
23/09:00pm 29.6 33.2 25.0 76 3.2 W 15 22 8 12 1010.8 1010.7 0.0
23/08:30pm 29.8 32.7 24.4 73 3.8 W 17 20 9 11 1010.7 1010.6 0.0
23/08:00pm 30.0 33.2 24.4 72 3.9 WNW 15 20 8 11 1010.2 1010.1 0.0
23/07:30pm 30.1 32.7 24.6 72 3.8 WNW 19 26 10 14 1009.8 1009.7 0.0
23/07:00pm 30.2 33.2 24.6 72 3.9 WNW 17 26 9 14 1009.5 1009.4 0.0
23/06:30pm 30.5 33.5 24.6 70 4.1 WNW 17 26 9 14 1008.7 1008.6 0.0
23/06:00pm 30.9 33.8 24.4 68 4.5 WNW 17 26 9 14 1008.4 1008.3 0.0
23/05:30pm 31.9 35.4 24.2 63 5.4 WNW 13 24 7 13 1008.3 1008.2 0.0
23/05:00pm 31.9 34.0 23.1 59 6.1 WNW 17 26 9 14 1008.1 1008.0 0.0
23/04:30pm 32.2 34.0 22.5 56 6.6 WNW 17 26 9 14 1008.3 1008.2 0.0
23/04:00pm 32.1 33.1 21.7 54 7.0 WNW 19 26 10 14 1008.2 1008.1 0.0
23/03:30pm 32.3 33.4 21.9 54 7.1 WNW 19 28 10 15 1008.3 1008.2 0.0
23/03:00pm 32.8 33.9 21.3 50 7.8 WNW 17 26 9 14 1008.7 1008.6 0.0
23/02:30pm 33.5 37.1 22.3 52 7.7 WNW 7 24 4 13 1009.1 1009.0 0.0
23/02:00pm 32.4 35.1 20.7 50 7.8 WNW 7 17 4 9 1009.6 1009.5 0.0
23/01:30pm 32.3 34.5 21.2 52 7.5 WNW 11 22 6 12 1010.1 1010.0 0.0
23/01:00pm 32.0 34.0 22.2 56 6.7 WNW 15 24 8 13 1010.5 1010.4 0.0
23/12:30pm 31.1 32.9 22.6 60 5.8 WNW 17 26 9 14 1011.0 1010.9 0.0
23/12:00pm 30.6 32.5 22.8 63 5.3 WNW 17 26 9 14 1011.5 1011.4 0.0
23/11:30am 30.9 32.7 22.6 61 5.7 WNW 17 24 9 13 1012.0 1011.9 0.0
23/11:00am 30.2 32.1 22.0 61 5.5 WNW 15 24 8 13 1012.2 1012.1 0.0
23/10:30am 30.3 32.7 22.3 62 5.4 WNW 13 20 7 11 1012.3 1012.2 0.0
23/10:00am 30.3 33.4 22.8 64 5.1 WNW 11 19 6 10 1012.4 1012.3 0.0
23/09:30am 30.3 33.7 22.7 64 5.2 WNW 9 15 5 8 1012.4 1012.3 0.0
23/09:00am 30.1 34.1 23.1 66 4.8 NW 7 17 4 9 1012.3 1012.2 0.0
23/08:30am 30.0 33.7 23.3 67 4.6 NW 9 15 5 8 1012.2 1012.1 0.0
23/08:00am 29.7 33.7 23.7 70 4.1 NNW 9 17 5 9 1011.9 1011.8 0.0
23/07:30am 29.5 34.3 24.2 73 3.7 NNW 6 15 3 8 1011.3 1011.2 0.0
23/07:00am 29.4 34.2 24.4 74 3.5 NNW 7 13 4 7 1010.9 1010.8 0.0
23/06:30am 29.1 34.3 24.2 75 3.4 NNW 4 9 2 5 1010.6 1010.5 0.0
23/06:00am 29.1 34.3 24.2 75 3.4 NNW 4 9 2 5 1010.4 1010.3 0.0
23/05:30am 29.2 33.8 24.2 74 3.5 NNW 7 13 4 7 1010.1 1010.0 0.0
23/05:00am 29.2 34.4 24.2 74 3.5 NW 4 11 2 6 1009.9 1009.8 0.0
23/04:30am 29.2 33.7 24.6 76 3.2 WNW 9 17 5 9 1009.7 1009.6 0.0
23/04:00am 29.2 33.4 24.1 74 3.5 NW 9 15 5 8 1009.4 1009.3 0.0
23/03:30am 29.2 33.5 24.3 75 3.4 NW 9 15 5 8 1009.3 1009.2 0.0
23/03:00am 29.2 33.9 25.0 78 2.9 WNW 9 13 5 7 1009.4 1009.3 0.0
23/02:30am 29.2 33.4 24.8 77 3.1 W 11 15 6 8 1009.6 1009.5 0.0
23/02:00am 29.4 33.7 24.2 73 3.6 W 9 15 5 8 1009.8 1009.7 0.0
23/01:30am 29.5 34.1 24.1 72 3.7 WNW 7 13 4 7 1010.0 1009.9 0.0
23/01:00am 29.6 34.4 24.5 74 3.6 WNW 7 15 4 8 1010.1 1010.0 0.0
23/12:30am 29.7 33.9 24.8 75 3.4 WNW 11 17 6 9 1010.1 1010.0 0.0
23/12:00am 29.8 33.9 24.5 73 3.7 WNW 11 19 6 10 1010.2 1010.1 0.0
 
Date/Time
CST
Temp
°C
App
Temp
°C
Dew
Point
°C
Rel
Hum
%
Delta-T
°C
Wind Press
QNH
hPa
Press
MSL
hPa
Rain since
9am
mm
Dir  Spd
km/h
Gust
km/h
Spd
kts
Gust
kts
22/11:30pm 29.8 34.4 25.3 77 3.2 WNW 11 20 6 11 1010.5 1010.4 0.0
22/11:00pm 29.9 34.1 25.4 77 3.2 WNW 13 19 7 10 1010.8 1010.7 0.0
22/10:30pm 30.1 34.5 25.1 74 3.5 WNW 11 20 6 11 1010.9 1010.8 0.0
22/10:00pm 30.0 34.2 25.3 76 3.3 WNW 13 15 7 8 1010.6 1010.5 0.0
22/09:30pm 29.9 34.3 25.1 75 3.4 W 11 15 6 8 1010.5 1010.4 0.0
22/09:00pm 30.0 34.7 24.9 74 3.6 WNW 9 15 5 8 1010.4 1010.3 0.0
22/08:30pm 29.8 34.7 24.7 74 3.6 WNW 7 11 4 6 1010.0 1009.9 0.0
22/08:00pm 30.1 34.6 24.6 72 3.8 WNW 9 13 5 7 1009.8 1009.7 0.0
22/07:30pm 30.5 34.9 24.4 70 4.3 W 9 13 5 7 1009.3 1009.2 0.0
22/07:00pm 30.6 34.6 23.7 66 4.8 W 9 17 5 9 1008.6 1008.5 0.0
22/06:30pm 30.6 34.7 24.0 68 4.6 WNW 9 15 5 8 1007.8 1007.7 0.0
22/06:00pm 30.7 33.9 23.1 64 5.2 WNW 11 15 6 8 1007.5 1007.4 0.0
22/05:30pm 31.3 34.3 22.7 60 5.9 WNW 11 17 6 9 1007.4 1007.3 0.0
22/05:00pm 31.0 34.3 23.2 63 5.4 WNW 11 17 6 9 1007.5 1007.4 0.0
22/04:30pm 31.1 34.7 23.1 62 5.5 NW 9 19 5 10 1007.5 1007.4 0.0
22/04:00pm 31.1 34.7 23.0 62 5.6 NW 9 19 5 10 1007.6 1007.5 0.0
22/03:30pm 31.0 33.6 23.3 63 5.3 NNW 15 20 8 11 1007.9 1007.8 0.0
22/03:00pm 30.9 34.2 23.2 63 5.3 WNW 11 20 6 11 1008.3 1008.2 0.0
22/02:30pm 31.3 34.8 23.6 63 5.3 WNW 11 19 6 10 1008.8 1008.7 0.0
22/02:00pm 32.0 36.4 23.8 62 5.7 NNW 7 17 4 9 1009.3 1009.2 0.0
22/01:30pm 31.5 35.2 23.3 61 5.7 WNW 9 17 5 9 1009.8 1009.7 0.0
22/01:00pm 31.4 34.7 21.4 55 6.7 N 6 13 3 7 1010.7 1010.6 0.0
22/12:30pm 30.6 33.0 20.0 53 7.0 W 7 11 4 6 1011.3 1011.2 0.0
22/12:00pm 31.0 35.5 23.6 64 5.1 WSW 6 9 3 5 1011.4 1011.3 0.0
22/11:30am 30.7 35.3 23.8 66 4.8 W 6 9 3 5 1011.7 1011.6 0.0
22/11:00am 30.5 35.4 23.0 64 5.1 WSW 2 7 1 4 1011.9 1011.8 0.0
22/10:30am 30.5 35.8 23.1 64 5.1 CALM 0 0 0 0 1012.1 1012.0 0.0
22/10:00am 30.5 34.5 23.1 64 5.1 W 7 11 4 6 1012.3 1012.2 0.0
22/09:30am 30.3 35.2 23.0 65 5.0 WSW 2 7 1 4 1012.1 1012.0 0.0
22/09:00am 29.9 34.7 24.4 72 3.8 W 7 9 4 5 1011.6 1011.5 0.0
22/08:30am 30.0 34.9 24.6 73 3.8 WNW 7 11 4 6 1011.0 1010.9 0.0
22/08:00am 29.6 34.2 24.7 75 3.4 WNW 9 15 5 8 1010.6 1010.5 0.0
22/07:30am 29.5 33.4 24.8 76 3.3 WNW 13 17 7 9 1010.1 1010.0 0.0
22/07:00am 29.4 33.0 24.4 74 3.5 WNW 13 19 7 10 1009.6 1009.5 0.0
22/06:30am 29.3 33.6 24.9 77 3.1 WNW 11 15 6 8 1009.3 1009.2 0.0
22/06:00am 29.1 33.3 24.8 77 3.0 WNW 11 17 6 9 1008.9 1008.8 0.0
22/05:30am 29.0 32.9 24.9 78 2.9 W 13 19 7 10 1008.9 1008.8 0.0
22/05:00am 29.1 32.3 24.9 78 2.9 W 17 24 9 13 1008.4 1008.3 0.0
22/04:30am 29.2 32.0 24.9 77 3.0 W 19 24 10 13 1008.2 1008.1 0.0
22/04:00am 29.4 32.0 24.9 77 3.2 WNW 20 28 11 15 1007.9 1007.8 0.0
22/03:30am 29.3 33.0 25.1 78 3.0 WNW 15 26 8 14 1008.0 1007.9 0.0
22/03:00am 29.3 32.2 25.1 78 3.0 NW 19 30 10 16 1007.8 1007.7 0.0
22/02:30am 29.2 32.6 25.3 79 2.7 WNW 17 28 9 15 1007.9 1007.8 0.0
22/02:00am 29.3 32.7 25.2 78 2.9 NW 17 30 9 16 1007.9 1007.8 0.0
22/01:30am 29.2 33.0 25.3 79 2.7 NW 15 32 8 17 1008.2 1008.1 0.0
22/01:00am 29.3 33.5 25.3 79 2.8 NW 13 24 7 13 1008.5 1008.4 0.0
22/12:30am 29.4 33.2 25.3 78 2.9 NW 15 24 8 13 1009.0 1008.9 0.0
22/12:00am 29.5 33.0 25.5 79 2.8 WNW 17 28 9 15 1009.3 1009.2 0.0
 
Date/Time
CST
Temp
°C
App
Temp
°C
Dew
Point
°C
Rel
Hum
%
Delta-T
°C
Wind Press
QNH
hPa
Press
MSL
hPa
Rain since
9am
mm
Dir  Spd
km/h
Gust
km/h
Spd
kts
Gust
kts
21/11:30pm 29.5 32.9 25.2 77 3.0 WNW 17 26 9 14 1009.5 1009.4 0.0
21/11:00pm 29.7 33.4 25.7 79 2.8 WNW 17 28 9 15 1009.4 1009.3 0.0
21/10:30pm 29.8 33.0 25.8 79 2.8 WNW 20 32 11 17 1009.6 1009.5 0.0
21/10:00pm 29.6 33.5 25.5 78 2.9 WNW 15 20 8 11 1009.5 1009.4 0.0

Latest Capital City Observations: Canberra | Sydney | Melbourne | Brisbane | Adelaide | Perth | Hobart | Darwin

Other formats

Comma delimited format used in spreadsheet applications
http://www.bom.gov.au/fwo/IDD60901/IDD60901.95122.axf

JavaScript Object Notation format (JSON) in row-major order
http://www.bom.gov.au/fwo/IDD60901/IDD60901.95122.json

Data quality

Most of these data are generated automatically and are frequently updated. Quality checks on data are not normally performed. It is possible for incorrect values to appear. Refer to information at About Latest Weather Observations and please check the disclaimer before using these data.